createdAt,value
2023-03-22T00:00:06.247Z,14.90
2023-03-22T00:02:34.548Z,13.60
2023-03-22T00:05:03.419Z,14.10
2023-03-22T00:07:31.749Z,14.82
2023-03-22T00:09:59.984Z,15.88
2023-03-22T00:12:28.218Z,15.65
2023-03-22T00:14:57.005Z,13.13
2023-03-22T00:17:26.627Z,13.30
2023-03-22T00:19:54.887Z,16.73
2023-03-22T00:22:23.178Z,15.43
2023-03-22T00:24:52.271Z,14.40
2023-03-22T00:27:20.913Z,13.90
2023-03-22T00:29:49.352Z,15.57
2023-03-22T00:32:17.548Z,16.33
2023-03-22T00:34:46.370Z,12.95
2023-03-22T00:37:16.597Z,16.75
2023-03-22T00:39:45.612Z,13.95
2023-03-22T00:42:14.468Z,13.00
2023-03-22T00:44:42.602Z,13.20
2023-03-22T00:47:10.919Z,12.98
2023-03-22T00:49:39.606Z,12.32
2023-03-22T00:52:07.835Z,15.23
2023-03-22T00:54:36.153Z,12.95
2023-03-22T00:57:04.648Z,15.70
2023-03-22T00:59:38.718Z,11.65
2023-03-22T01:02:07.823Z,16.10
2023-03-22T01:04:36.663Z,20.40
2023-03-22T01:07:07.988Z,24.40
2023-03-22T01:09:38.001Z,21.63
2023-03-22T01:12:07.221Z,15.90
2023-03-22T01:14:35.484Z,14.27
2023-03-22T01:17:05.375Z,17.80
2023-03-22T01:19:34.960Z,14.27
2023-03-22T01:22:05.783Z,20.55
2023-03-22T01:24:35.197Z,21.17
2023-03-22T01:27:03.535Z,20.98
2023-03-22T01:29:32.113Z,21.55
2023-03-22T01:32:01.685Z,19.42
2023-03-22T01:34:31.568Z,19.58
2023-03-22T01:37:00.211Z,18.92
2023-03-22T01:39:29.236Z,18.95
2023-03-22T01:42:02.176Z,13.93
2023-03-22T01:44:31.714Z,11.05
2023-03-22T01:47:02.966Z,11.50
2023-03-22T01:49:34.737Z,14.75
2023-03-22T01:52:08.628Z,16.60
2023-03-22T01:55:02.925Z,15.48
2023-03-22T01:57:42.600Z,13.63
2023-03-22T02:00:19.083Z,14.40
2023-03-22T02:03:07.575Z,13.32
2023-03-22T02:05:41.739Z,16.85
2023-03-22T02:08:10.996Z,13.13
2023-03-22T02:10:56.364Z,14.77
2023-03-22T02:13:42.637Z,11.63
2023-03-22T02:16:49.554Z,12.60
2023-03-22T02:19:45.760Z,13.02
2023-03-22T02:22:15.060Z,10.80
2023-03-22T02:24:55.784Z,12.63
2023-03-22T02:27:38.545Z,10.35
2023-03-22T02:30:50.843Z,9.43
2023-03-22T02:33:50.160Z,11.68
2023-03-22T02:36:27.065Z,11.43
2023-03-22T02:39:14.319Z,10.93
2023-03-22T02:41:57.414Z,12.30
2023-03-22T02:45:00.683Z,14.35
2023-03-22T02:47:43.694Z,11.82
2023-03-22T02:50:21.432Z,15.23
2023-03-22T02:53:10.498Z,19.77
2023-03-22T02:55:59.876Z,15.85
2023-03-22T02:58:46.218Z,15.50
2023-03-22T03:01:28.531Z,13.25
2023-03-22T03:04:01.360Z,16.13
2023-03-22T03:06:36.324Z,15.82
2023-03-22T03:09:05.629Z,12.30
2023-03-22T03:11:34.874Z,11.57
2023-03-22T03:14:03.027Z,13.93
2023-03-22T03:16:36.904Z,12.13
2023-03-22T03:19:56.018Z,11.50
2023-03-22T03:22:31.508Z,10.75
2023-03-22T03:25:13.877Z,10.95
2023-03-22T03:28:03.782Z,11.35
2023-03-22T03:30:39.246Z,11.95
2023-03-22T03:33:14.436Z,11.52
2023-03-22T03:36:01.459Z,13.40
2023-03-22T03:38:34.601Z,11.63
2023-03-22T03:41:10.373Z,14.43
2023-03-22T03:43:40.403Z,12.63
2023-03-22T03:46:08.881Z,12.63
2023-03-22T03:48:41.201Z,10.68
2023-03-22T03:51:12.794Z,14.02
2023-03-22T03:53:41.720Z,15.15
2023-03-22T03:56:10.977Z,12.02
2023-03-22T03:58:43.969Z,13.13
2023-03-22T04:01:12.978Z,19.65
2023-03-22T04:04:04.416Z,13.55
2023-03-22T04:06:45.380Z,12.80
2023-03-22T04:11:52.809Z,13.40
2023-03-22T04:14:24.543Z,15.00
2023-03-22T04:16:55.178Z,16.70
2023-03-22T04:19:25.322Z,16.73
2023-03-22T04:21:54.070Z,18.42
2023-03-22T04:24:22.827Z,19.75
2023-03-22T04:26:53.660Z,17.00
2023-03-22T04:29:51.399Z,15.98
2023-03-22T04:32:51.479Z,14.68
2023-03-22T04:35:24.834Z,14.23
2023-03-22T04:37:54.149Z,15.15
2023-03-22T04:40:26.622Z,17.42
2023-03-22T04:43:04.336Z,18.80
2023-03-22T04:45:46.392Z,20.42
2023-03-22T04:48:22.391Z,16.48
2023-03-22T04:50:53.583Z,17.52
2023-03-22T04:53:27.588Z,20.27
2023-03-22T04:56:02.855Z,12.43
2023-03-22T04:58:33.419Z,14.80
2023-03-22T05:01:02.402Z,14.90
2023-03-22T05:03:30.447Z,16.73
2023-03-22T05:06:03.358Z,15.77
2023-03-22T05:08:41.423Z,14.82
2023-03-22T05:11:14.320Z,12.63
2023-03-22T05:13:45.848Z,14.82
2023-03-22T05:16:15.593Z,12.88
2023-03-22T05:18:54.665Z,15.07
2023-03-22T05:21:28.508Z,16.52
2023-03-22T05:23:59.871Z,15.70
2023-03-22T05:26:28.221Z,18.55
2023-03-22T05:28:59.015Z,17.88
2023-03-22T05:31:51.369Z,20.67
2023-03-22T05:34:20.583Z,18.13
2023-03-22T05:36:51.696Z,14.82
2023-03-22T05:39:29.011Z,16.38
2023-03-22T05:41:58.350Z,12.25
2023-03-22T05:44:27.163Z,12.32
2023-03-22T05:47:07.084Z,12.98
2023-03-22T05:49:56.352Z,11.23
2023-03-22T05:52:27.221Z,12.52
2023-03-22T05:55:18.706Z,11.77
2023-03-22T05:57:47.885Z,11.77
2023-03-22T06:00:17.344Z,11.27
2023-03-22T06:03:05.850Z,13.77
2023-03-22T06:05:39.893Z,11.60
2023-03-22T06:08:09.492Z,14.63
2023-03-22T06:10:38.943Z,11.55
2023-03-22T06:13:07.635Z,12.23
2023-03-22T06:15:36.116Z,11.85
2023-03-22T06:20:43.654Z,14.07
2023-03-22T06:23:17.277Z,11.93
2023-03-22T06:25:47.802Z,10.00
2023-03-22T06:28:17.601Z,10.15
2023-03-22T06:30:52.315Z,15.30
2023-03-22T06:33:26.562Z,11.63
2023-03-22T06:36:02.186Z,11.60
2023-03-22T06:38:38.235Z,12.30
2023-03-22T06:41:06.549Z,10.00
2023-03-22T06:43:35.463Z,10.00
2023-03-22T06:46:15.501Z,10.45
2023-03-22T06:48:53.933Z,10.23
2023-03-22T06:51:22.555Z,10.48
2023-03-22T06:53:51.816Z,9.52
2023-03-22T06:56:20.311Z,9.73
2023-03-22T06:58:52.203Z,11.73
2023-03-22T07:01:23.516Z,9.73
2023-03-22T07:03:52.416Z,9.05
2023-03-22T07:06:23.805Z,9.30
2023-03-22T07:08:52.760Z,11.40
2023-03-22T07:11:27.172Z,7.70
2023-03-22T07:14:01.738Z,8.35
2023-03-22T07:16:48.033Z,11.10
2023-03-22T07:19:18.593Z,12.18
2023-03-22T07:21:47.645Z,10.73
2023-03-22T07:24:17.083Z,10.60
2023-03-22T07:26:46.970Z,11.50
2023-03-22T07:29:20.745Z,11.90
2023-03-22T07:31:49.286Z,9.50
2023-03-22T07:34:23.455Z,10.32
2023-03-22T07:37:15.314Z,11.07
2023-03-22T07:39:45.077Z,17.27
2023-03-22T07:42:13.690Z,24.38
2023-03-22T07:45:00.105Z,17.77
2023-03-22T07:47:50.410Z,11.73
2023-03-22T07:50:19.599Z,10.50
2023-03-22T07:52:55.382Z,9.38
2023-03-22T07:55:23.555Z,10.10
2023-03-22T07:57:51.975Z,9.75
2023-03-22T08:00:21.305Z,10.07
2023-03-22T08:03:05.000Z,7.90
2023-03-22T08:05:53.778Z,8.32
2023-03-22T08:08:22.735Z,7.00
2023-03-22T08:10:51.763Z,5.80
2023-03-22T08:13:20.580Z,6.47
2023-03-22T08:15:48.803Z,7.53
2023-03-22T08:18:19.975Z,6.88
2023-03-22T08:20:54.835Z,11.25
2023-03-22T08:23:38.532Z,6.05
2023-03-22T08:26:45.841Z,6.63
2023-03-22T08:29:23.790Z,7.13
2023-03-22T08:31:52.783Z,7.80
2023-03-22T08:34:21.374Z,8.68
2023-03-22T08:36:51.548Z,6.63
2023-03-22T08:39:21.577Z,8.07
2023-03-22T08:42:11.047Z,8.52
2023-03-22T08:44:40.045Z,7.60
2023-03-22T08:47:08.907Z,7.57
2023-03-22T08:49:37.344Z,8.88
2023-03-22T08:52:13.035Z,7.40
2023-03-22T08:54:55.730Z,7.85
2023-03-22T08:57:42.752Z,7.32
2023-03-22T09:00:45.670Z,9.32
2023-03-22T09:03:31.466Z,8.05
2023-03-22T09:06:00.779Z,6.43
2023-03-22T09:08:34.384Z,8.73
2023-03-22T09:11:13.216Z,6.57
2023-03-22T09:13:43.263Z,7.95
2023-03-22T09:16:12.282Z,5.68
2023-03-22T09:18:41.131Z,6.90
2023-03-22T09:21:17.713Z,5.65
2023-03-22T09:24:03.572Z,6.18
2023-03-22T09:26:41.730Z,8.75
2023-03-22T09:29:10.932Z,5.57
2023-03-22T09:31:41.669Z,6.72
2023-03-22T09:34:22.745Z,5.82
2023-03-22T09:36:52.910Z,8.27
2023-03-22T09:39:24.644Z,6.55
2023-03-22T09:42:01.289Z,6.18
2023-03-22T09:44:43.328Z,6.57
2023-03-22T09:47:33.195Z,5.68
2023-03-22T09:50:20.521Z,6.40
2023-03-22T09:52:50.141Z,5.68
2023-03-22T09:55:30.606Z,5.32
2023-03-22T09:58:19.332Z,6.35
2023-03-22T10:01:15.296Z,5.80
2023-03-22T10:04:02.075Z,5.18
2023-03-22T10:06:31.170Z,7.60
2023-03-22T10:09:08.745Z,5.88
2023-03-22T10:11:46.371Z,5.05
2023-03-22T10:14:42.197Z,4.82
2023-03-22T10:17:16.122Z,6.05
2023-03-22T10:19:59.310Z,4.93
2023-03-22T10:22:32.942Z,5.78
2023-03-22T10:25:01.821Z,5.63
2023-03-22T10:27:32.261Z,6.18
2023-03-22T10:30:08.536Z,6.55
2023-03-22T10:33:02.786Z,6.95
2023-03-22T10:35:33.361Z,6.57
2023-03-22T10:38:06.754Z,6.40
2023-03-22T10:40:37.124Z,5.75
2023-03-22T10:43:30.054Z,7.00
2023-03-22T10:46:02.150Z,7.30
2023-03-22T10:48:37.251Z,8.98
2023-03-22T10:51:06.818Z,6.40
2023-03-22T10:53:46.715Z,7.35
2023-03-22T10:56:20.379Z,10.85
2023-03-22T10:58:51.149Z,9.13
2023-03-22T11:01:36.964Z,8.18
2023-03-22T11:04:13.737Z,9.55
2023-03-22T11:06:56.291Z,9.98
2023-03-22T11:09:25.532Z,8.77
2023-03-22T11:12:01.917Z,7.78
2023-03-22T11:14:36.225Z,9.18
2023-03-22T11:17:08.487Z,6.18
2023-03-22T11:19:50.498Z,8.13
2023-03-22T11:22:35.191Z,6.50
2023-03-22T11:25:07.297Z,6.85
2023-03-22T11:27:36.601Z,9.68
2023-03-22T11:30:21.876Z,6.53
2023-03-22T11:32:59.837Z,10.10
2023-03-22T11:35:31.262Z,10.00
2023-03-22T11:38:01.504Z,8.57
2023-03-22T11:40:50.739Z,8.27
2023-03-22T11:43:23.321Z,7.05
2023-03-22T11:45:57.030Z,8.55
2023-03-22T11:48:28.422Z,7.90
2023-03-22T11:51:08.343Z,11.00
2023-03-22T11:53:43.589Z,7.20
2023-03-22T11:56:16.994Z,9.52
2023-03-22T11:58:59.762Z,9.63
2023-03-22T12:01:45.795Z,9.45
2023-03-22T12:04:22.888Z,8.05
2023-03-22T12:06:55.652Z,8.30
2023-03-22T12:09:48.737Z,7.82
2023-03-22T12:12:30.846Z,8.05
2023-03-22T12:15:29.975Z,9.80
2023-03-22T12:18:01.185Z,7.03
2023-03-22T12:20:49.466Z,6.00
2023-03-22T12:23:20.975Z,7.85
2023-03-22T12:25:58.560Z,7.78
2023-03-22T12:28:40.783Z,9.88
2023-03-22T12:31:26.910Z,6.80
2023-03-22T12:34:00.055Z,7.50
2023-03-22T12:36:34.977Z,6.18
2023-03-22T12:39:06.723Z,6.95
2023-03-22T12:41:39.352Z,5.47
2023-03-22T12:44:29.252Z,6.05
2023-03-22T12:47:03.322Z,6.20
2023-03-22T12:50:04.046Z,6.65
2023-03-22T12:52:56.076Z,4.97
2023-03-22T12:55:30.905Z,6.65
2023-03-22T12:57:59.774Z,6.25
2023-03-22T13:00:56.234Z,4.18
2023-03-22T13:03:29.195Z,6.28
2023-03-22T13:06:27.508Z,4.75
2023-03-22T13:09:31.481Z,5.75
2023-03-22T13:12:17.957Z,5.80
2023-03-22T13:14:58.799Z,7.25
2023-03-22T13:17:28.065Z,5.32
2023-03-22T13:20:06.899Z,5.80
2023-03-22T13:22:43.806Z,6.70
2023-03-22T13:25:17.325Z,30.45
2023-03-22T13:28:04.615Z,8.63
2023-03-22T13:30:48.042Z,10.63
2023-03-22T13:33:37.107Z,6.78
2023-03-22T13:36:23.233Z,13.73
2023-03-22T13:39:08.757Z,7.55
2023-03-22T13:41:38.099Z,8.52
2023-03-22T13:44:21.546Z,9.30
2023-03-22T13:46:57.855Z,7.32
2023-03-22T13:49:31.815Z,5.55
2023-03-22T13:52:02.819Z,6.80
2023-03-22T13:54:42.855Z,7.03
2023-03-22T13:57:45.806Z,7.15
2023-03-22T14:00:39.065Z,8.57
2023-03-22T14:06:05.982Z,7.55
2023-03-22T14:08:36.422Z,7.18
2023-03-22T14:11:51.794Z,7.10
2023-03-22T14:14:24.821Z,10.45
2023-03-22T14:17:34.252Z,5.85
2023-03-22T14:20:06.636Z,6.75
